Saturday, August 27, 2016
09:59 UTC
  |  Log In   |  Register Free
Airport Search:

Henry Post Aaf (Fort Sill) Airport
(KFSI)

Henry Post Aaf (Fort Sill) Airport Diagram
No Airport Diagram Available

FAA data valid effective Jul 21 2016 - Sep 15 2016 (unless otherwise noted).

 
 
 
 
 
 
 
 
 
 
 
 
 
 
Current Aviation Weather for KFSI

Weather Summary


The most recent METAR observation for FSI was updated at: 12:58 UTC
METAR for FSI is not available. Closest METAR is for
METAR

METAR KFSI 270858Z 18004KT 10SM CLR 22/21 A2997 RMK AO2 SLP139 T02200210 57016

METAR KFSI 270758Z 16003KT 10SM SCT150 23/21 A3000 RMK AO2 SLP149 T02300212

METAR KFSI 270658Z 15004KT 10SM OVC150 24/21 A3001 RMK AO2 SLP152 T02350213

METAR KCHK 270935Z 19004KT 10SM CLR 23/21 A2999 RMK AO2

METAR KDUC 270935Z 00000KT 21/21 A3000 RMK AO2 PWINO TSNO

METAR KFDR 270953Z 16005KT 10SM CLR 23/21 A2997 RMK AO2 SLP130 T02280211

TAF for FSI is not available.
TAF

KFSI - TAF AMD KFSI 270710Z 2707/2803 17009KT 9999 FEW070 QNH2991INS

KFSI - BECMG 2723/2724 15010G15KT 8000 -SHRA BKN060 QNH2991INS TX30/2721Z TN23/2712Z AMD 270710 LAST NO AMDS AFT 2707 NEXT 2710 =

KLAW - TAF KLAW 270520Z 2706/2806 14007KT P6SM FEW150 BKN250

KLAW - FM271600 14009KT P6SM SCT050 BKN150 =

GlobalAir.com is loading additional information.
 Current Weather at FSI
73.0 F° (23.0 C°)

South winds at 3.5 mph
Pressure:
30.00 in
Humidity:
90%
Wind:
South at 3.5 mph
Dew Point:
70.2 F° (21.2 C°)
Visibility:
10.00 mi
FSI NOAA Radar




Find All Airport Services Find A Hotel Find A Rental Car Find A Golf Course Find A Restaurant $100 Hamburger



Airport Weather Forecast for KFSI

Translated METAR for KFSI (0858 UTC)
METAR:
KFSI 270858Z AUTO Henry Post Army Airfield (Fort Still), Fort Sill, OK (KFSI). Aug 27, 0858Z, Automated. Wind from 180° at 4 knots, 10 statute miles visibility, Clear Skies, Temperature 22°C, Dewpoint 21°C, Altimeter is 29.97. Remarks: automated station with precipitation discriminator sea level pressure 1013.9 hectopascals hourly temp 22.0°C dewpoint 21.0°C 3-hour atmospheric pressure decreasing steadily or unsteadily by 1.6 hectopascals
Conditions at:
KFSI (Henry Post Aaf (Fort Sill), OK) observed 0858 UTC 27 August 2016
Temperature:
73.0 F° (23.0 C°)
Dewpoint:
not reported - refer to area weather report
Pressure:
30.00 Hg
Winds:
not reported
Visibility:
10.00
Ceiling:
at least 12,000 feet AGL
Clouds:
not reported - refer to area weather report
Remarks:
site is un-manned

Translated TAF for TAF for FSI is not available. Refer to local area forecast.
FBO's on the Field
FBO Company Facility Photos Services Transportation Aviation Fuel Prices: Prices include tax
Catering Weather Repair Courtesy Rental Type 100LL JetA JetA+ MOGAS 8087
 
Add another FBO Facility Photos Catering Weather Repair Courtesy Rental Type 100LL JetA JetA+ MOGAS 8087
Services Transportation Aviation Fuel Prices: Prices include tax
There are no FBO's currently reporting fuel at FSI. List your FBO now


model-print
model-print
model-print
model-print